Time;durP1;ratioP1;P1;durP2;ratioP2;P2;SDS_P1;SDS_P2;PMS_P1;PMS_P2;Temp;Humidity;BMP_temperature;BMP_pressure;BME280_temperature;BME280_humidity;BME280_pressure;Samples;Min_cycle;Max_cycle;Signal;HPM_P1;HPM_P2
2023/08/02 00:01:55;;;;;;;8.52;2.47;;;16.10;99.90;;;;;;5097717;28;20437;-43
2023/08/02 00:04:20;;;;;;;8.32;2.58;;;16.10;99.90;;;;;;5089013;28;20020;-43
2023/08/02 00:06:46;;;;;;;6.28;2.00;;;16.10;99.90;;;;;;5088696;28;20439;-43
2023/08/02 00:09:11;;;;;;;8.10;2.47;;;16.10;99.90;;;;;;5089053;28;20431;-42
2023/08/02 00:11:37;;;;;;;5.20;2.22;;;16.10;99.90;;;;;;5070684;28;20466;-42
2023/08/02 00:14:02;;;;;;;9.48;2.22;;;16.10;99.90;;;;;;5088698;28;20039;-43
2023/08/02 00:16:28;;;;;;;5.70;2.42;;;16.00;99.90;;;;;;5070667;28;20393;-43
2023/08/02 00:18:54;;;;;;;5.57;2.00;;;16.00;99.90;;;;;;5088998;28;20355;-44
2023/08/02 00:21:19;;;;;;;3.92;1.77;;;16.00;99.90;;;;;;5089187;28;20098;-43
2023/08/02 00:23:45;;;;;;;7.15;1.92;;;16.00;99.90;;;;;;5088869;28;20013;-42
2023/08/02 00:26:10;;;;;;;6.32;2.30;;;16.00;99.90;;;;;;5070629;28;20602;-42
2023/08/02 00:28:36;;;;;;;3.63;1.85;;;15.90;99.90;;;;;;5089005;28;20012;-45
2023/08/02 00:31:01;;;;;;;7.68;2.28;;;15.90;99.90;;;;;;5089046;28;20028;-43
2023/08/02 00:33:27;;;;;;;3.10;1.90;;;15.90;99.90;;;;;;5070931;28;20057;-43
2023/08/02 00:35:54;;;;;;;6.03;2.38;;;15.90;99.90;;;;;;5070907;28;20021;-43
2023/08/02 00:38:21;;;;;;;4.25;1.70;;;15.80;99.90;;;;;;5089139;28;20028;-43
2023/08/02 00:40:46;;;;;;;7.70;2.30;;;15.80;99.90;;;;;;5070925;28;20412;-43
2023/08/02 00:43:12;;;;;;;9.07;2.58;;;15.70;99.90;;;;;;5070777;28;20032;-42
2023/08/02 00:45:37;;;;;;;3.92;1.88;;;15.80;99.90;;;;;;5070631;28;20019;-42
2023/08/02 00:48:04;;;;;;;7.75;2.33;;;15.70;99.90;;;;;;5088909;28;20075;-42
2023/08/02 00:50:31;;;;;;;7.35;2.70;;;15.70;99.90;;;;;;5070586;28;20039;-43
2023/08/02 00:52:57;;;;;;;3.95;2.20;;;15.70;99.90;;;;;;5070338;28;20516;-43
2023/08/02 00:55:23;;;;;;;5.72;2.08;;;15.70;99.90;;;;;;5088172;28;20028;-42
2023/08/02 00:57:49;;;;;;;6.43;2.10;;;15.70;99.90;;;;;;5070399;28;20098;-42
2023/08/02 01:00:14;;;;;;;5.07;2.22;;;15.70;99.90;;;;;;5088440;28;20097;-42
2023/08/02 01:02:40;;;;;;;5.53;2.42;;;15.70;99.90;;;;;;5088495;28;20024;-42
2023/08/02 01:05:06;;;;;;;8.85;3.10;;;15.60;99.90;;;;;;5088483;28;20039;-43
2023/08/02 01:07:51;;;;;;;6.35;2.70;;;15.60;99.90;;;;;;5088787;28;20016;-42
2023/08/02 01:10:22;;;;;;;6.72;2.50;;;15.60;99.90;;;;;;5088311;28;20381;-42
2023/08/02 01:12:51;;;;;;;8.55;2.97;;;15.60;99.90;;;;;;5088342;28;20039;-43
2023/08/02 01:15:17;;;;;;;10.30;2.70;;;15.60;99.90;;;;;;5088075;28;20115;-44
2023/08/02 01:17:44;;;;;;;12.52;2.75;;;15.60;99.90;;;;;;5088435;28;20553;-46
2023/08/02 01:20:10;;;;;;;6.80;2.72;;;15.60;99.90;;;;;;5073814;28;20496;-45
2023/08/02 01:22:36;;;;;;;6.28;2.70;;;15.60;99.90;;;;;;5091460;28;20032;-44
2023/08/02 01:25:03;;;;;;;7.38;2.70;;;15.60;99.90;;;;;;5091858;28;20024;-43
2023/08/02 01:27:58;;;;;;;9.02;2.90;;;15.60;99.90;;;;;;5092156;28;20052;-45
2023/08/02 01:30:29;;;;;;;6.82;2.80;;;15.70;99.90;;;;;;5080771;28;20060;-43
2023/08/02 01:32:55;;;;;;;8.40;3.83;;;15.70;99.90;;;;;;5091914;28;20040;-43
2023/08/02 01:35:21;;;;;;;10.25;3.80;;;15.70;99.90;;;;;;5091766;28;20032;-46
2023/08/02 01:37:48;;;;;;;9.95;3.25;;;15.80;99.90;;;;;;5091976;28;20073;-43
2023/08/02 01:40:13;;;;;;;9.95;3.83;;;15.70;99.90;;;;;;5091709;28;20020;-44
2023/08/02 01:42:39;;;;;;;5.53;3.50;;;15.80;99.90;;;;;;5091645;28;20023;-43
2023/08/02 01:45:05;;;;;;;10.57;4.03;;;15.80;99.90;;;;;;5091545;28;20382;-42
2023/08/02 01:47:31;;;;;;;5.85;3.40;;;15.80;99.90;;;;;;5091669;28;20024;-43
2023/08/02 01:49:57;;;;;;;11.02;3.60;;;15.80;99.90;;;;;;5091647;28;20016;-43
2023/08/02 01:52:22;;;;;;;9.05;3.65;;;15.90;99.90;;;;;;5091578;28;20501;-42
2023/08/02 01:54:47;;;;;;;9.95;3.88;;;15.90;99.90;;;;;;5090972;28;20472;-43
2023/08/02 01:57:13;;;;;;;5.53;3.33;;;15.90;99.90;;;;;;5091396;28;20101;-45
2023/08/02 01:59:38;;;;;;;6.82;3.38;;;16.00;99.90;;;;;;5091190;28;20119;-47
2023/08/02 02:02:04;;;;;;;7.38;3.20;;;16.00;99.90;;;;;;5091818;28;20023;-45
2023/08/02 02:04:29;;;;;;;6.45;3.60;;;16.00;99.90;;;;;;5072685;28;20384;-44
2023/08/02 02:06:55;;;;;;;6.85;3.92;;;16.00;99.90;;;;;;5091382;28;20520;-43
2023/08/02 02:09:21;;;;;;;7.88;3.42;;;16.00;99.90;;;;;;5091414;28;20047;-42
2023/08/02 02:11:46;;;;;;;7.38;3.50;;;16.00;99.90;;;;;;5091170;28;20016;-43
2023/08/02 02:14:12;;;;;;;9.38;3.75;;;16.00;99.90;;;;;;5090864;28;20020;-44
2023/08/02 02:16:37;;;;;;;5.72;3.10;;;16.00;99.90;;;;;;5091061;28;20031;-44
2023/08/02 02:19:03;;;;;;;8.50;3.20;;;16.00;99.90;;;;;;5090877;28;20437;-42
2023/08/02 02:21:28;;;;;;;9.60;4.10;;;16.00;99.90;;;;;;5090923;28;20445;-42
2023/08/02 02:23:54;;;;;;;10.82;3.88;;;16.00;99.90;;;;;;5090469;28;20024;-42
2023/08/02 02:26:19;;;;;;;9.63;3.70;;;16.00;99.90;;;;;;5090864;28;20024;-43
2023/08/02 02:28:45;;;;;;;8.88;3.63;;;15.90;99.90;;;;;;5090947;28;20042;-43
2023/08/02 02:31:10;;;;;;;8.27;3.97;;;15.90;99.90;;;;;;5090315;28;20036;-44
2023/08/02 02:33:36;;;;;;;9.50;3.40;;;15.90;99.90;;;;;;5072255;28;20414;-42
2023/08/02 02:36:04;;;;;;;6.40;3.58;;;15.90;99.90;;;;;;5090492;28;20039;-43
2023/08/02 02:38:31;;;;;;;10.82;3.67;;;15.80;99.90;;;;;;5090509;28;20377;-43
2023/08/02 02:40:56;;;;;;;11.75;3.28;;;15.80;99.90;;;;;;5090310;28;20095;-44
2023/08/02 02:43:22;;;;;;;5.43;3.28;;;15.80;99.90;;;;;;5090123;28;20103;-43
2023/08/02 02:45:48;;;;;;;6.40;3.25;;;15.70;99.90;;;;;;5090033;28;20020;-43
2023/08/02 02:48:13;;;;;;;7.38;3.88;;;15.70;99.90;;;;;;5089967;28;20043;-45
2023/08/02 02:50:39;;;;;;;7.25;3.75;;;15.70;99.90;;;;;;5090040;28;20028;-46
2023/08/02 02:53:04;;;;;;;15.13;3.78;;;15.70;99.90;;;;;;5097446;28;20053;-44
2023/08/02 02:55:30;;;;;;;9.82;3.67;;;15.70;99.90;;;;;;5094166;28;20532;-43
2023/08/02 02:57:55;;;;;;;9.38;4.25;;;15.70;99.90;;;;;;5096741;28;20031;-45
2023/08/02 03:00:21;;;;;;;9.35;3.50;;;15.70;99.90;;;;;;5071544;28;20378;-44
2023/08/02 03:02:46;;;;;;;7.90;4.10;;;15.80;99.90;;;;;;5090021;28;20047;-43
2023/08/02 03:05:12;;;;;;;6.55;3.55;;;15.80;99.90;;;;;;5089644;28;20028;-42
2023/08/02 03:07:37;;;;;;;8.15;3.47;;;15.80;99.90;;;;;;5090096;28;20012;-47
2023/08/02 03:10:04;;;;;;;8.70;3.92;;;15.80;99.90;;;;;;5090081;28;20081;-45
2023/08/02 03:12:29;;;;;;;9.27;4.10;;;15.80;99.90;;;;;;5089598;28;20019;-43
2023/08/02 03:14:55;;;;;;;6.90;3.42;;;15.80;99.90;;;;;;5071107;28;20564;-46
2023/08/02 03:17:20;;;;;;;14.85;3.58;;;15.80;99.90;;;;;;5089833;28;20020;-43
2023/08/02 03:19:46;;;;;;;7.88;3.90;;;15.80;99.90;;;;;;5089728;28;20020;-44
2023/08/02 03:22:11;;;;;;;6.15;3.33;;;15.80;99.90;;;;;;5090158;28;20453;-42
2023/08/02 03:24:37;;;;;;;9.23;3.33;;;15.80;99.90;;;;;;5088750;28;20493;-42
2023/08/02 03:27:02;;;;;;;7.70;3.47;;;15.80;99.90;;;;;;5089323;28;20488;-43
2023/08/02 03:29:28;;;;;;;6.93;3.45;;;15.80;99.90;;;;;;5089547;28;20020;-44
2023/08/02 03:31:53;;;;;;;9.93;3.63;;;15.80;99.90;;;;;;5071035;28;20111;-46
2023/08/02 03:34:19;;;;;;;10.10;4.38;;;15.80;99.90;;;;;;5089136;28;20032;-43
2023/08/02 03:36:44;;;;;;;9.20;3.40;;;15.90;99.90;;;;;;5089533;28;20436;-45
2023/08/02 03:39:11;;;;;;;6.28;3.70;;;15.80;99.90;;;;;;5089738;28;20430;-44
2023/08/02 03:41:37;;;;;;;8.88;3.53;;;15.80;99.90;;;;;;5088806;28;20020;-44
2023/08/02 03:44:02;;;;;;;9.40;4.00;;;15.80;99.90;;;;;;5089272;28;20089;-42
2023/08/02 03:46:28;;;;;;;8.25;3.55;;;15.80;99.90;;;;;;5089381;28;20543;-44
2023/08/02 03:48:53;;;;;;;9.02;3.42;;;15.80;99.90;;;;;;5089228;28;20024;-43
2023/08/02 03:51:19;;;;;;;5.80;3.20;;;15.80;99.90;;;;;;5089220;28;20032;-44
2023/08/02 03:53:44;;;;;;;6.25;3.15;;;15.80;99.90;;;;;;5088998;28;20027;-44
2023/08/02 03:56:10;;;;;;;9.38;3.85;;;15.80;99.90;;;;;;5089125;28;20046;-42
2023/08/02 03:58:35;;;;;;;15.77;4.13;;;15.80;99.90;;;;;;5088879;28;20032;-46
2023/08/02 04:01:01;;;;;;;5.97;3.60;;;15.70;99.90;;;;;;5088774;28;20032;-44
2023/08/02 04:03:26;;;;;;;5.20;3.55;;;15.70;99.90;;;;;;5088775;28;20095;-43
2023/08/02 04:05:52;;;;;;;6.57;3.88;;;15.70;99.90;;;;;;5088383;28;20473;-42
2023/08/02 04:08:17;;;;;;;7.40;3.80;;;15.60;99.90;;;;;;5089127;28;20031;-44
2023/08/02 04:10:43;;;;;;;6.85;3.72;;;15.60;99.90;;;;;;5088955;28;20039;-45
2023/08/02 04:13:08;;;;;;;9.52;3.92;;;15.60;99.90;;;;;;5088575;28;20546;-43
2023/08/02 04:15:34;;;;;;;8.88;3.72;;;15.50;99.90;;;;;;5088789;28;20385;-43
2023/08/02 04:18:01;;;;;;;11.30;3.75;;;15.50;99.90;;;;;;5089141;28;20111;-45
2023/08/02 04:20:26;;;;;;;11.93;4.60;;;15.50;99.90;;;;;;5089054;28;20035;-45
2023/08/02 04:22:52;;;;;;;8.23;4.43;;;15.40;99.90;;;;;;5088805;28;20016;-46
2023/08/02 04:25:17;;;;;;;7.72;4.47;;;15.40;99.90;;;;;;5088626;28;20031;-47
2023/08/02 04:27:43;;;;;;;8.65;3.97;;;15.40;99.90;;;;;;5088633;28;20024;-46
2023/08/02 04:30:09;;;;;;;13.48;4.95;;;15.40;99.90;;;;;;5088913;28;20085;-44
2023/08/02 04:32:35;;;;;;;8.32;4.57;;;15.40;99.90;;;;;;5088422;28;20229;-43
2023/08/02 04:35:01;;;;;;;7.50;4.93;;;15.30;99.90;;;;;;5088741;28;20085;-43
2023/08/02 04:37:27;;;;;;;8.32;4.78;;;15.30;99.90;;;;;;5088826;28;20326;-44
2023/08/02 04:39:52;;;;;;;8.73;4.25;;;15.30;99.90;;;;;;5088826;28;20028;-44
2023/08/02 04:42:18;;;;;;;11.07;4.20;;;15.30;99.90;;;;;;5088787;28;20648;-43
2023/08/02 04:44:43;;;;;;;8.88;4.25;;;15.20;99.90;;;;;;5087970;28;20266;-43
2023/08/02 04:47:09;;;;;;;9.48;4.13;;;15.20;99.90;;;;;;5089188;28;20036;-45
2023/08/02 04:49:37;;;;;;;6.75;4.45;;;15.20;99.90;;;;;;5070675;28;20381;-43
2023/08/02 04:52:03;;;;;;;5.82;3.83;;;15.20;99.90;;;;;;5088462;28;20461;-43
2023/08/02 04:54:29;;;;;;;11.45;3.85;;;15.20;99.90;;;;;;5090714;28;20079;-44
2023/08/02 04:56:54;;;;;;;9.68;4.15;;;15.20;99.90;;;;;;5092333;28;20035;-43
2023/08/02 04:59:21;;;;;;;9.20;4.10;;;15.20;99.90;;;;;;5092426;28;20358;-43
2023/08/02 05:01:47;;;;;;;8.05;4.45;;;15.30;99.90;;;;;;5092349;28;20032;-43
2023/08/02 05:04:13;;;;;;;8.93;4.18;;;15.30;99.90;;;;;;5091799;28;20024;-44
2023/08/02 05:06:38;;;;;;;8.70;4.47;;;15.30;99.90;;;;;;5092499;28;20099;-44
2023/08/02 05:09:04;;;;;;;5.97;3.90;;;15.30;99.90;;;;;;5092588;28;20031;-43
2023/08/02 05:11:33;;;;;;;7.05;3.65;;;15.30;99.90;;;;;;5074110;28;20488;-44
2023/08/02 05:13:59;;;;;;;6.43;3.85;;;15.30;99.90;;;;;;5091793;28;20020;-43
2023/08/02 05:16:26;;;;;;;11.15;3.95;;;15.30;99.90;;;;;;5091085;28;20028;-45
2023/08/02 05:18:51;;;;;;;9.38;3.88;;;15.40;99.90;;;;;;5089578;28;20459;-47
2023/08/02 05:21:18;;;;;;;8.50;4.07;;;15.40;99.90;;;;;;5091995;28;20118;-44
2023/08/02 05:23:44;;;;;;;8.95;3.70;;;15.50;99.90;;;;;;5091410;28;20107;-43
2023/08/02 05:26:10;;;;;;;7.43;3.55;;;15.50;99.90;;;;;;5091311;28;20134;-44
2023/08/02 05:28:36;;;;;;;6.47;3.80;;;15.50;99.90;;;;;;5091613;28;20028;-43
2023/08/02 05:31:02;;;;;;;6.03;3.63;;;15.60;99.90;;;;;;5073689;28;20027;-47
2023/08/02 05:33:27;;;;;;;11.45;4.22;;;15.70;99.90;;;;;;5091652;28;20028;-44
2023/08/02 05:35:53;;;;;;;5.72;3.42;;;15.80;99.90;;;;;;5091442;28;20095;-45
2023/08/02 05:38:18;;;;;;;11.65;3.80;;;15.80;99.90;;;;;;5091558;28;20032;-43
2023/08/02 05:40:44;;;;;;;10.18;3.70;;;15.90;99.90;;;;;;5073473;28;20035;-44
2023/08/02 05:43:09;;;;;;;6.63;3.67;;;16.00;99.90;;;;;;5091369;28;20093;-44
2023/08/02 05:45:35;;;;;;;6.35;3.10;;;16.10;99.90;;;;;;5091405;28;20020;-44
2023/08/02 05:48:01;;;;;;;6.63;3.83;;;16.20;99.90;;;;;;5091487;28;20043;-44
2023/08/02 05:50:28;;;;;;;15.25;4.10;;;16.40;99.90;;;;;;5091256;28;20020;-44
2023/08/02 05:52:54;;;;;;;9.80;4.30;;;16.50;99.90;;;;;;5091074;28;20032;-44
2023/08/02 05:55:19;;;;;;;7.32;3.72;;;16.60;99.90;;;;;;5091246;28;20059;-44
2023/08/02 05:57:45;;;;;;;6.82;3.42;;;16.70;99.90;;;;;;5091528;28;20095;-43
2023/08/02 06:00:11;;;;;;;8.10;3.70;;;16.80;99.90;;;;;;5072886;28;20033;-44
2023/08/02 06:02:38;;;;;;;9.48;3.63;;;16.90;99.90;;;;;;5091054;28;20028;-44
2023/08/02 06:05:04;;;;;;;8.50;4.25;;;17.00;99.90;;;;;;5090372;28;20424;-43
2023/08/02 06:07:29;;;;;;;9.35;4.00;;;17.00;99.90;;;;;;5072358;28;20024;-44
2023/08/02 06:09:55;;;;;;;8.13;3.45;;;17.20;99.90;;;;;;5072411;28;20548;-42
2023/08/02 06:12:21;;;;;;;6.57;3.33;;;17.30;99.90;;;;;;5091036;28;20040;-43
2023/08/02 06:14:47;;;;;;;9.80;3.53;;;17.50;99.90;;;;;;5071794;28;20020;-43
2023/08/02 06:17:12;;;;;;;7.30;3.30;;;17.60;99.90;;;;;;5089886;28;20032;-43
2023/08/02 06:19:38;;;;;;;8.70;2.78;;;17.60;99.90;;;;;;5090460;28;20032;-44
2023/08/02 06:22:03;;;;;;;6.95;3.35;;;17.50;99.90;;;;;;5090536;28;20069;-46
2023/08/02 06:24:29;;;;;;;6.63;3.35;;;17.50;99.90;;;;;;5090246;28;20388;-46
2023/08/02 06:26:55;;;;;;;6.25;3.25;;;17.60;99.90;;;;;;5091305;28;20052;-43
2023/08/02 06:29:20;;;;;;;9.40;3.50;;;17.60;99.90;;;;;;5072162;28;20035;-44
2023/08/02 06:31:46;;;;;;;12.48;4.35;;;17.60;99.90;;;;;;5090392;28;20032;-42
2023/08/02 06:34:11;;;;;;;5.60;3.13;;;17.60;99.90;;;;;;5090069;28;20031;-44
2023/08/02 06:36:38;;;;;;;5.63;2.85;;;17.60;99.90;;;;;;5072452;28;20035;-43
2023/08/02 06:39:04;;;;;;;4.70;3.05;;;17.60;99.90;;;;;;5090182;28;20074;-46
2023/08/02 06:41:30;;;;;;;10.20;3.35;;;17.70;99.90;;;;;;5090002;28;20354;-43
2023/08/02 06:43:55;;;;;;;5.78;2.92;;;17.60;99.90;;;;;;5089827;28;20107;-45
2023/08/02 06:46:21;;;;;;;4.57;2.38;;;17.50;99.90;;;;;;5090613;28;20036;-44
2023/08/02 06:48:47;;;;;;;5.00;2.63;;;17.50;99.90;;;;;;5090507;28;20028;-44
2023/08/02 06:51:12;;;;;;;6.68;2.50;;;17.50;99.90;;;;;;5071780;28;20089;-43
2023/08/02 06:53:38;;;;;;;3.70;2.28;;;17.50;99.90;;;;;;5098108;28;20032;-43
2023/08/02 06:56:15;;;;;;;4.57;2.50;;;17.50;99.90;;;;;;5090144;28;20051;-43
2023/08/02 06:58:41;;;;;;;6.00;2.45;;;17.60;99.90;;;;;;5071907;28;20058;-46
2023/08/02 07:01:17;;;;;;;6.28;2.28;;;17.60;99.90;;;;;;5071995;28;20020;-43
2023/08/02 07:03:44;;;;;;;5.55;2.67;;;17.80;99.90;;;;;;5089957;28;20024;-44
2023/08/02 07:06:18;;;;;;;5.93;2.63;;;17.80;99.90;;;;;;5089486;28;20036;-45
2023/08/02 07:08:45;;;;;;;3.95;1.92;;;17.80;99.90;;;;;;5090321;28;20127;-42
2023/08/02 07:11:11;;;;;;;6.32;2.50;;;17.90;99.90;;;;;;5090096;28;20016;-43
2023/08/02 07:13:37;;;;;;;7.95;2.63;;;18.00;99.90;;;;;;5089282;28;20074;-43
2023/08/02 07:16:04;;;;;;;7.38;2.63;;;17.90;99.90;;;;;;5089767;28;20103;-44
2023/08/02 07:18:29;;;;;;;10.82;2.78;;;17.90;99.90;;;;;;5089709;28;20024;-44
2023/08/02 07:20:55;;;;;;;7.32;2.78;;;18.10;99.90;;;;;;5089783;28;20019;-44
2023/08/02 07:23:22;;;;;;;7.10;2.30;;;18.30;99.90;;;;;;5090014;28;20070;-43
2023/08/02 07:25:47;;;;;;;6.53;2.25;;;18.40;99.90;;;;;;5071453;28;20092;-43
2023/08/02 07:28:13;;;;;;;6.38;2.22;;;18.60;99.90;;;;;;5089787;28;20107;-45
2023/08/02 07:30:38;;;;;;;3.72;2.08;;;18.70;99.90;;;;;;5090078;28;20456;-44
2023/08/02 07:33:04;;;;;;;6.65;2.20;;;18.80;99.90;;;;;;5071017;28;20020;-43
2023/08/02 07:35:30;;;;;;;6.22;2.20;;;18.90;99.90;;;;;;5089207;28;20039;-43
2023/08/02 07:37:55;;;;;;;10.30;3.08;;;19.00;99.90;;;;;;5089376;28;20028;-43
2023/08/02 07:40:21;;;;;;;5.60;2.65;;;19.20;99.90;;;;;;5089572;28;20028;-43
2023/08/02 07:42:46;;;;;;;4.22;2.25;;;19.40;99.90;;;;;;5089681;28;20028;-43
2023/08/02 07:45:12;;;;;;;5.13;2.40;;;19.40;99.90;;;;;;5089376;28;20499;-43
2023/08/02 07:47:38;;;;;;;7.07;2.20;;;19.40;99.90;;;;;;5088571;28;20047;-45
2023/08/02 07:50:05;;;;;;;3.72;1.80;;;19.60;99.90;;;;;;5089051;28;20021;-43
2023/08/02 07:52:32;;;;;;;7.53;2.40;;;19.90;99.90;;;;;;5086275;28;20032;-44
2023/08/02 07:54:57;;;;;;;3.97;2.20;;;20.00;99.90;;;;;;5088745;28;20278;-42
2023/08/02 07:57:25;;;;;;;5.03;1.85;;;19.90;99.90;;;;;;5070638;28;20054;-42
2023/08/02 07:59:51;;;;;;;5.15;2.08;;;19.80;99.90;;;;;;5087804;28;20449;-44
2023/08/02 08:02:17;;;;;;;9.45;2.63;;;20.10;99.90;;;;;;5088559;28;20536;-42
2023/08/02 08:04:43;;;;;;;7.70;2.35;;;20.40;99.90;;;;;;5061767;28;20034;-43
2023/08/02 08:07:08;;;;;;;5.53;2.03;;;20.50;99.90;;;;;;5098739;28;20313;-43
2023/08/02 08:09:35;;;;;;;6.65;2.40;;;20.80;99.90;;;;;;5092505;28;20111;-42
2023/08/02 08:12:04;;;;;;;5.85;1.92;;;21.10;99.90;;;;;;5087713;28;20019;-43
2023/08/02 08:14:30;;;;;;;6.00;1.73;;;21.60;99.90;;;;;;5087225;28;20508;-42
2023/08/02 08:16:59;;;;;;;4.32;1.90;;;21.90;99.90;;;;;;5087608;28;20440;-43
2023/08/02 08:19:28;;;;;;;5.60;2.00;;;21.60;99.90;;;;;;5087572;28;20032;-43
2023/08/02 08:21:54;;;;;;;5.07;2.30;;;21.40;99.90;;;;;;5088005;28;20050;-43
2023/08/02 08:24:20;;;;;;;5.68;2.03;;;21.30;99.90;;;;;;5087664;28;20028;-46
2023/08/02 08:26:46;;;;;;;5.20;1.80;;;21.50;99.90;;;;;;5088038;28;20469;-42
2023/08/02 08:29:11;;;;;;;1.45;1.20;;;21.40;99.90;;;;;;5090740;28;20028;-42
2023/08/02 08:31:37;;;;;;;3.65;1.80;;;21.60;99.90;;;;;;5092749;28;20236;-42
2023/08/02 08:34:03;;;;;;;3.65;1.90;;;21.60;99.90;;;;;;5091847;28;20047;-42
2023/08/02 08:36:31;;;;;;;4.75;2.10;;;21.50;99.90;;;;;;5091454;28;20070;-42
2023/08/02 08:38:57;;;;;;;4.18;1.80;;;21.40;99.90;;;;;;5090925;28;20455;-44
2023/08/02 08:41:23;;;;;;;2.88;1.42;;;21.80;99.90;;;;;;5092127;28;20013;-42
2023/08/02 08:43:49;;;;;;;3.72;1.70;;;21.90;99.90;;;;;;5090912;28;20545;-42
2023/08/02 08:46:15;;;;;;;6.32;2.35;;;21.40;99.90;;;;;;5073121;28;20054;-42
2023/08/02 08:48:41;;;;;;;4.05;1.55;;;21.30;99.90;;;;;;5091144;28;20024;-43
2023/08/02 08:51:10;;;;;;;4.55;2.10;;;21.00;99.90;;;;;;5091423;28;20036;-43
2023/08/02 08:53:36;;;;;;;3.55;1.55;;;21.10;99.90;;;;;;5091357;28;20020;-43
2023/08/02 08:56:04;;;;;;;2.53;1.60;;;21.10;99.90;;;;;;5091646;28;20084;-43
2023/08/02 08:58:34;;;;;;;5.35;1.85;;;21.10;99.90;;;;;;5092422;28;20071;-43
2023/08/02 09:01:03;;;;;;;5.38;2.10;;;21.30;99.90;;;;;;5092376;28;20030;-42
2023/08/02 09:03:29;;;;;;;5.15;2.10;;;21.30;99.90;;;;;;5091511;28;20027;-43
2023/08/02 09:05:59;;;;;;;2.78;1.92;;;21.60;99.90;;;;;;5091544;28;20470;-44
2023/08/02 09:08:25;;;;;;;3.20;1.75;;;22.10;99.90;;;;;;5092187;28;20081;-42
2023/08/02 09:10:51;;;;;;;3.28;2.13;;;21.70;99.90;;;;;;5092344;28;20032;-45
2023/08/02 09:13:23;;;;;;;3.85;2.35;;;21.70;99.90;;;;;;5092250;28;20299;-42
2023/08/02 09:16:11;;;;;;;3.45;1.73;;;21.70;99.90;;;;;;5073936;28;20031;-42
2023/08/02 09:18:42;;;;;;;3.50;1.83;;;21.70;99.90;;;;;;5092088;28;20111;-43
2023/08/02 09:21:09;;;;;;;4.22;2.33;;;21.40;99.90;;;;;;5092240;28;20032;-43
2023/08/02 09:23:35;;;;;;;2.58;1.92;;;21.20;99.90;;;;;;5073890;28;20028;-42
2023/08/02 09:26:15;;;;;;;6.07;2.05;;;21.20;99.90;;;;;;5073252;28;20400;-46
2023/08/02 09:28:41;;;;;;;3.55;1.73;;;21.00;99.90;;;;;;5091672;28;20360;-42
2023/08/02 09:31:34;;;;;;;2.97;1.70;;;21.40;99.90;;;;;;5088239;28;20486;-42
2023/08/02 09:34:00;;;;;;;3.13;1.42;;;21.60;99.90;;;;;;5068669;28;20060;-42
2023/08/02 09:36:28;;;;;;;5.13;2.03;;;21.60;99.90;;;;;;5091105;28;20031;-43
2023/08/02 09:39:02;;;;;;;3.58;1.85;;;21.50;99.90;;;;;;5090432;28;20439;-42
2023/08/02 09:41:29;;;;;;;4.13;1.90;;;21.40;99.90;;;;;;5071171;28;20023;-42
2023/08/02 09:43:56;;;;;;;2.63;1.88;;;21.60;99.90;;;;;;5090472;28;20051;-42
2023/08/02 09:46:28;;;;;;;2.63;1.52;;;21.90;99.90;;;;;;5090892;28;20024;-43
2023/08/02 09:48:55;;;;;;;4.25;2.22;;;22.10;99.90;;;;;;5090911;28;20031;-42
2023/08/02 09:51:21;;;;;;;2.38;1.63;;;22.10;99.90;;;;;;5089629;28;20032;-42
2023/08/02 09:53:54;;;;;;;2.83;1.80;;;21.90;99.90;;;;;;5071773;28;20081;-42
2023/08/02 09:56:23;;;;;;;2.65;1.83;;;21.80;99.90;;;;;;5072264;28;20086;-43
2023/08/02 09:58:55;;;;;;;4.10;1.75;;;21.70;99.90;;;;;;5090416;28;20032;-42
2023/08/02 10:01:23;;;;;;;2.78;1.60;;;21.70;99.90;;;;;;5090438;28;20024;-42
2023/08/02 10:03:55;;;;;;;4.20;1.98;;;21.50;99.90;;;;;;5071940;28;20039;-41
2023/08/02 10:06:23;;;;;;;3.40;1.80;;;21.30;99.90;;;;;;5090409;28;20069;-41
2023/08/02 10:08:50;;;;;;;5.05;1.90;;;21.10;99.90;;;;;;5090276;28;20027;-43
2023/08/02 10:11:17;;;;;;;3.33;1.60;;;21.10;99.90;;;;;;5090175;28;20157;-42
2023/08/02 10:13:46;;;;;;;3.95;2.03;;;21.00;99.90;;;;;;5089994;28;20032;-42
2023/08/02 10:16:13;;;;;;;4.80;2.22;;;20.70;99.90;;;;;;5089805;28;20032;-42
2023/08/02 10:18:39;;;;;;;4.63;2.20;;;20.60;99.90;;;;;;5089548;28;20420;-42
2023/08/02 10:21:05;;;;;;;4.75;2.38;;;20.40;99.90;;;;;;5085996;28;20029;-43
2023/08/02 10:23:31;;;;;;;2.83;2.13;;;20.40;99.90;;;;;;5089372;28;20028;-43
2023/08/02 10:25:57;;;;;;;4.13;2.10;;;20.30;99.90;;;;;;5096937;28;20020;-42
2023/08/02 10:28:23;;;;;;;4.13;2.45;;;20.30;99.90;;;;;;5094201;28;20057;-42
2023/08/02 10:30:49;;;;;;;3.58;2.03;;;20.10;99.90;;;;;;5092122;28;20077;-44
2023/08/02 10:33:20;;;;;;;6.63;2.70;;;19.80;99.90;;;;;;5071386;28;20035;-43
2023/08/02 10:35:59;;;;;;;5.05;2.35;;;19.80;99.90;;;;;;5089187;28;20020;-43
2023/08/02 10:38:46;;;;;;;4.40;2.30;;;19.80;99.90;;;;;;5089724;28;20497;-43
2023/08/02 10:41:25;;;;;;;6.10;2.30;;;20.30;99.90;;;;;;5071354;28;20380;-42
2023/08/02 10:43:54;;;;;;;4.40;2.22;;;20.60;99.90;;;;;;5070474;28;20028;-42
2023/08/02 10:46:26;;;;;;;6.30;2.20;;;20.70;99.90;;;;;;5089678;28;20317;-42
2023/08/02 10:48:52;;;;;;;6.80;2.90;;;20.80;99.90;;;;;;5072654;28;20214;-44
2023/08/02 10:51:27;;;;;;;6.22;2.70;;;20.80;99.90;;;;;;5089963;28;20431;-42
2023/08/02 10:54:15;;;;;;;8.38;3.00;;;20.80;99.90;;;;;;5071306;28;20034;-43
2023/08/02 10:56:54;;;;;;;8.75;3.45;;;20.70;99.90;;;;;;5090153;28;20408;-43
2023/08/02 10:59:23;;;;;;;5.65;3.38;;;20.40;99.90;;;;;;5089127;28;20047;-42
2023/08/02 11:02:09;;;;;;;7.40;3.22;;;20.30;99.90;;;;;;5092959;28;20259;-43
2023/08/02 11:04:40;;;;;;;7.20;3.70;;;20.10;99.90;;;;;;5089694;28;20016;-43
2023/08/02 11:07:12;;;;;;;5.00;3.08;;;20.00;99.90;;;;;;5090627;28;20024;-42
2023/08/02 11:09:38;;;;;;;6.93;2.90;;;20.00;99.90;;;;;;5089445;28;20059;-42
2023/08/02 11:12:17;;;;;;;3.97;2.58;;;20.00;99.90;;;;;;5089939;28;20060;-42
2023/08/02 11:14:48;;;;;;;4.32;2.90;;;19.80;99.90;;;;;;5088641;28;20405;-42
2023/08/02 11:17:19;;;;;;;5.57;3.25;;;19.80;99.90;;;;;;5070756;28;20111;-43
2023/08/02 11:19:49;;;;;;;4.38;3.35;;;19.60;99.90;;;;;;5090167;28;20107;-42
2023/08/02 11:22:15;;;;;;;5.90;3.65;;;19.40;99.90;;;;;;5090001;28;20447;-42
2023/08/02 11:24:44;;;;;;;8.27;3.60;;;19.30;99.90;;;;;;5071686;28;20016;-41
2023/08/02 11:27:17;;;;;;;10.43;3.78;;;19.10;99.90;;;;;;5071670;28;20115;-44
2023/08/02 11:29:57;;;;;;;6.45;3.58;;;19.00;99.90;;;;;;5071724;28;20101;-42
2023/08/02 11:32:22;;;;;;;7.22;3.67;;;19.00;99.90;;;;;;5089928;28;20116;-44
2023/08/02 11:34:48;;;;;;;5.90;3.85;;;19.10;99.90;;;;;;5089126;28;20099;-42
2023/08/02 11:37:15;;;;;;;4.70;3.55;;;19.20;99.90;;;;;;5089732;28;20035;-44
2023/08/02 11:39:58;;;;;;;5.50;3.67;;;19.30;99.90;;;;;;5071339;28;20076;-42
2023/08/02 11:42:25;;;;;;;8.88;3.83;;;19.30;99.90;;;;;;5083222;28;20232;-43
2023/08/02 11:44:51;;;;;;;4.35;3.28;;;19.30;99.90;;;;;;5088684;28;20016;-42
2023/08/02 11:47:17;;;;;;;5.35;3.88;;;19.20;99.90;;;;;;5088239;28;20489;-43
2023/08/02 11:49:57;;;;;;;8.35;4.38;;;19.10;99.90;;;;;;5089434;28;20439;-43
2023/08/02 11:52:31;;;;;;;5.37;3.60;;;18.80;99.90;;;;;;5089349;28;20028;-42
2023/08/02 11:54:57;;;;;;;8.73;4.85;;;18.70;99.90;;;;;;5088973;28;20073;-44
2023/08/02 11:57:24;;;;;;;8.70;5.35;;;18.70;99.90;;;;;;5089479;28;20035;-42
2023/08/02 11:59:56;;;;;;;8.60;4.50;;;18.70;99.90;;;;;;5089329;28;20672;-44
2023/08/02 12:02:27;;;;;;;4.90;4.03;;;18.60;99.90;;;;;;5071062;28;20031;-42
2023/08/02 12:04:53;;;;;;;7.57;4.40;;;18.60;99.90;;;;;;5070494;28;20016;-44
2023/08/02 12:07:29;;;;;;;6.85;4.22;;;18.60;99.90;;;;;;5088812;28;20065;-42
2023/08/02 12:09:55;;;;;;;7.28;4.70;;;18.60;99.90;;;;;;5088167;28;20351;-42
2023/08/02 12:12:21;;;;;;;7.78;4.50;;;18.70;99.90;;;;;;5088655;28;20042;-43
2023/08/02 12:14:47;;;;;;;8.38;4.30;;;18.70;99.90;;;;;;5088793;28;20016;-42
2023/08/02 12:17:20;;;;;;;9.43;4.88;;;18.60;99.90;;;;;;5089124;28;20024;-43
2023/08/02 12:19:47;;;;;;;10.77;4.82;;;18.60;99.90;;;;;;5087981;28;20516;-44
2023/08/02 12:22:13;;;;;;;8.27;4.80;;;18.50;99.90;;;;;;5089045;28;20079;-43
2023/08/02 12:24:38;;;;;;;8.35;3.85;;;18.30;99.90;;;;;;5088846;28;20016;-43
2023/08/02 12:27:16;;;;;;;6.82;4.25;;;18.30;99.90;;;;;;5070591;28;20078;-43
2023/08/02 12:29:43;;;;;;;11.68;4.50;;;18.30;99.90;;;;;;5088940;28;20024;-43
2023/08/02 12:32:25;;;;;;;6.38;4.10;;;18.20;99.90;;;;;;5088725;28;20435;-44
2023/08/02 12:34:50;;;;;;;6.75;4.63;;;18.20;99.90;;;;;;5086021;28;20457;-44
2023/08/02 12:37:17;;;;;;;6.07;4.20;;;18.20;99.90;;;;;;5088719;28;20045;-43
2023/08/02 12:39:42;;;;;;;5.75;4.30;;;18.10;99.90;;;;;;5088751;28;20016;-44
2023/08/02 12:42:08;;;;;;;7.28;4.30;;;18.10;99.90;;;;;;5088996;28;20373;-43
2023/08/02 12:44:34;;;;;;;6.72;3.70;;;18.10;99.90;;;;;;5070213;28;20020;-43
2023/08/02 12:46:59;;;;;;;10.10;4.43;;;18.10;99.90;;;;;;5072041;28;20498;-44